PWSweather.com
Personal Weather Stations
Station Observations
CHKWX
Mesa Panagitsa, ChalkisGR 34100

Mesa PanagitsaChalkisGR 34100

Lat: 38.470143, Lon: 23.598348

Elevation: 30

Station Type: Ambient Weather WS-1400-IP

www.chalkisweather.gr

High Low Average
Temperature 64.8°F18.2°F 49.1°F9.5°F 55.9°F13.3°F
Dew Point 48.6°F9.2°F 41.5°F5.3°F 45.3°F7.4°F
Winds 9.2 mph S14.8 mph S Calm Calm 3.2 mph 5.1 mph
Wind Gusts 15.0 mph24.1 mph -- 5.7 mph9.2 mph
Humidity 82% 47% 68%
Pressure 29.97 in1014.90 in 29.84 in1010.50 in -
Precipitation 0.00 in0.00 in - -
Hour Temp Dew Point Humidity Winds Wind Gusts Pressure Precip Precip Rate Daily Precip Total
12:00 AM 50.2°F10.1°C 43.3°F6.3°C 77% 1.2 mph SE1.9 kmh SE 2.3 mph3.7 kmh 29.97 in1014.9 mb - 0.00 in0.0 mm 0.00 in0.0 mm
12:10 AM 50.0°F10.0°C 42.7°F5.9°C 76% 1.2 mph SSE1.9 kmh SSE 2.3 mph3.7 kmh 29.96 in1014.6 mb - 0.00 in0.0 mm 0.00 in0.0 mm
12:20 AM 50.2°F10.1°C 42.9°F6.1°C 76% Calm Calm 2.3 mph3.7 kmh 29.97 in1014.9 mb - 0.00 in0.0 mm 0.00 in0.0 mm
12:30 AM 50.2°F10.1°C 43.3°F6.3°C 77% 1.2 mph SSW1.9 kmh SSW 2.3 mph3.7 kmh 29.96 in1014.6 mb - 0.00 in0.0 mm 0.00 in0.0 mm
12:40 AM 50.0°F10.0°C 42.4°F5.8°C 75% Calm Calm -- 29.96 in1014.6 mb - 0.00 in0.0 mm 0.00 in0.0 mm
12:50 AM 49.8°F9.9°C 42.5°F5.8°C 76% Calm Calm -- 29.96 in1014.6 mb - 0.00 in0.0 mm 0.00 in0.0 mm
01:00 AM 49.8°F9.9°C 42.5°F5.8°C 76% Calm Calm -- 29.97 in1014.9 mb - 0.00 in0.0 mm 0.00 in0.0 mm
01:10 AM 49.6°F9.8°C 42.7°F5.9°C 77% Calm Calm -- 29.97 in1014.9 mb - 0.00 in0.0 mm 0.00 in0.0 mm
01:20 AM 49.5°F9.7°C 42.6°F5.9°C 77% Calm Calm -- 29.97 in1014.9 mb - 0.00 in0.0 mm 0.00 in0.0 mm
01:30 AM 49.3°F9.6°C 42.1°F5.6°C 76% Calm Calm -- 29.96 in1014.6 mb - 0.00 in0.0 mm 0.00 in0.0 mm
01:40 AM 49.3°F9.6°C 42.7°F5.9°C 78% Calm Calm -- 29.96 in1014.6 mb - 0.00 in0.0 mm 0.00 in0.0 mm
01:50 AM 49.5°F9.7°C 42.2°F5.7°C 76% 1.2 mph SSE1.9 kmh SSE 2.3 mph3.7 kmh 29.96 in1014.6 mb - 0.00 in0.0 mm 0.00 in0.0 mm
02:00 AM 49.5°F9.7°C 42.6°F5.9°C 77% Calm Calm -- 29.96 in1014.6 mb - 0.00 in0.0 mm 0.00 in0.0 mm
02:10 AM 49.6°F9.8°C 43.0°F6.1°C 78% Calm Calm 2.3 mph3.7 kmh 29.96 in1014.6 mb - 0.00 in0.0 mm 0.00 in0.0 mm
02:20 AM 49.6°F9.8°C 43.3°F6.3°C 79% Calm Calm -- 29.96 in1014.6 mb - 0.00 in0.0 mm 0.00 in0.0 mm
02:30 AM 49.5°F9.7°C 42.9°F6.1°C 78% Calm Calm -- 29.97 in1014.9 mb - 0.00 in0.0 mm 0.00 in0.0 mm
02:40 AM 49.5°F9.7°C 42.9°F6.1°C 78% Calm Calm -- 29.96 in1014.6 mb - 0.00 in0.0 mm 0.00 in0.0 mm
02:50 AM 49.5°F9.7°C 43.6°F6.4°C 80% 1.2 mph S1.9 kmh S 2.3 mph3.7 kmh 29.96 in1014.6 mb - 0.00 in0.0 mm 0.00 in0.0 mm
03:00 AM 49.5°F9.7°C 43.3°F6.3°C 79% 2.3 mph S3.7 kmh S 4.6 mph7.4 kmh 29.97 in1014.9 mb - 0.00 in0.0 mm 0.00 in0.0 mm
03:10 AM 49.5°F9.7°C 42.6°F5.9°C 77% 2.3 mph SSE3.7 kmh SSE 4.6 mph7.4 kmh 29.96 in1014.6 mb - 0.00 in0.0 mm 0.00 in0.0 mm
03:20 AM 49.5°F9.7°C 43.9°F6.6°C 81% 2.3 mph S3.7 kmh S 2.3 mph3.7 kmh 29.96 in1014.6 mb - 0.00 in0.0 mm 0.00 in0.0 mm
03:30 AM 49.3°F9.6°C 43.7°F6.5°C 81% 4.6 mph SSE7.4 kmh SSE 8.1 mph13.0 kmh 29.96 in1014.6 mb - 0.00 in0.0 mm 0.00 in0.0 mm
03:40 AM 49.1°F9.5°C 43.8°F6.6°C 82% Calm Calm 2.3 mph3.7 kmh 29.96 in1014.6 mb - 0.00 in0.0 mm 0.00 in0.0 mm
03:50 AM 49.1°F9.5°C 43.8°F6.6°C 82% 2.3 mph SSE3.7 kmh SSE 4.6 mph7.4 kmh 29.96 in1014.6 mb - 0.00 in0.0 mm 0.00 in0.0 mm
04:00 AM 49.1°F9.5°C 43.2°F6.2°C 80% 2.3 mph S3.7 kmh S 2.3 mph3.7 kmh 29.95 in1014.2 mb - 0.00 in0.0 mm 0.00 in0.0 mm
04:10 AM 49.3°F9.6°C 43.7°F6.5°C 81% 1.2 mph WNW1.9 kmh WNW 2.3 mph3.7 kmh 29.96 in1014.6 mb - 0.00 in0.0 mm 0.00 in0.0 mm
04:20 AM 49.5°F9.7°C 44.2°F6.8°C 82% Calm Calm -- 29.95 in1014.2 mb - 0.00 in0.0 mm 0.00 in0.0 mm
04:30 AM 49.5°F9.7°C 44.2°F6.8°C 82% Calm Calm -- 29.95 in1014.2 mb - 0.00 in0.0 mm 0.00 in0.0 mm
04:40 AM 49.5°F9.7°C 43.6°F6.4°C 80% Calm Calm 2.3 mph3.7 kmh 29.94 in1013.9 mb - 0.00 in0.0 mm 0.00 in0.0 mm
04:50 AM 49.5°F9.7°C 43.6°F6.4°C 80% Calm Calm -- 29.95 in1014.2 mb - 0.00 in0.0 mm 0.00 in0.0 mm
05:00 AM 49.5°F9.7°C 43.6°F6.4°C 80% Calm Calm 2.3 mph3.7 kmh 29.94 in1013.9 mb - 0.00 in0.0 mm 0.00 in0.0 mm
05:10 AM 49.5°F9.7°C 43.9°F6.6°C 81% 2.3 mph SSE3.7 kmh SSE 4.6 mph7.4 kmh 29.94 in1013.9 mb - 0.00 in0.0 mm 0.00 in0.0 mm
05:20 AM 49.5°F9.7°C 43.9°F6.6°C 81% Calm Calm -- 29.94 in1013.9 mb - 0.00 in0.0 mm 0.00 in0.0 mm
05:30 AM 49.3°F9.6°C 43.7°F6.5°C 81% Calm Calm -- 29.94 in1013.9 mb - 0.00 in0.0 mm 0.00 in0.0 mm
05:40 AM 49.3°F9.6°C 44.0°F6.7°C 82% Calm Calm -- 29.94 in1013.9 mb - 0.00 in0.0 mm 0.00 in0.0 mm
05:50 AM 49.1°F9.5°C 43.5°F6.4°C 81% Calm Calm -- 29.94 in1013.9 mb - 0.00 in0.0 mm 0.00 in0.0 mm
06:00 AM 49.1°F9.5°C 42.9°F6.1°C 79% 1.2 mph ESE1.9 kmh ESE 2.3 mph3.7 kmh 29.94 in1013.9 mb - 0.00 in0.0 mm 0.00 in0.0 mm
06:10 AM 49.1°F9.5°C 42.9°F6.1°C 79% Calm Calm 2.3 mph3.7 kmh 29.94 in1013.9 mb - 0.00 in0.0 mm 0.00 in0.0 mm
06:20 AM 49.3°F9.6°C 42.4°F5.8°C 77% Calm Calm 2.3 mph3.7 kmh 29.95 in1014.2 mb - 0.00 in0.0 mm 0.00 in0.0 mm
06:30 AM 49.3°F9.6°C 42.7°F5.9°C 78% Calm Calm -- 29.95 in1014.2 mb - 0.00 in0.0 mm 0.00 in0.0 mm
06:40 AM 49.3°F9.6°C 43.1°F6.2°C 79% Calm Calm -- 29.95 in1014.2 mb - 0.00 in0.0 mm 0.00 in0.0 mm
06:50 AM 49.3°F9.6°C 43.1°F6.2°C 79% 1.2 mph SSE1.9 kmh SSE 2.3 mph3.7 kmh 29.94 in1013.9 mb - 0.00 in0.0 mm 0.00 in0.0 mm
07:00 AM 49.1°F9.5°C 42.2°F5.7°C 77% 1.2 mph SE1.9 kmh SE 4.6 mph7.4 kmh 29.95 in1014.2 mb - 0.00 in0.0 mm 0.00 in0.0 mm
07:10 AM 49.3°F9.6°C 43.4°F6.3°C 80% 1.2 mph SE1.9 kmh SE 2.3 mph3.7 kmh 29.95 in1014.2 mb - 0.00 in0.0 mm 0.00 in0.0 mm
07:20 AM 49.3°F9.6°C 43.4°F6.3°C 80% 2.3 mph SW3.7 kmh SW 4.6 mph7.4 kmh 29.95 in1014.2 mb - 0.00 in0.0 mm 0.00 in0.0 mm
07:30 AM 49.3°F9.6°C 43.1°F6.2°C 79% 2.3 mph SSE3.7 kmh SSE 4.6 mph7.4 kmh 29.95 in1014.2 mb - 0.00 in0.0 mm 0.00 in0.0 mm
07:40 AM 49.3°F9.6°C 43.4°F6.3°C 80% 2.3 mph S3.7 kmh S 4.6 mph7.4 kmh 29.95 in1014.2 mb - 0.00 in0.0 mm 0.00 in0.0 mm
07:50 AM 49.1°F9.5°C 43.8°F6.6°C 82% 4.6 mph S7.4 kmh S 4.6 mph7.4 kmh 29.95 in1014.2 mb - 0.00 in0.0 mm 0.00 in0.0 mm
08:00 AM 49.1°F9.5°C 43.5°F6.4°C 81% 4.6 mph SSE7.4 kmh SSE 8.1 mph13.0 kmh 29.94 in1013.9 mb - 0.00 in0.0 mm 0.00 in0.0 mm
08:10 AM 49.1°F9.5°C 41.5°F5.3°C 75% 3.5 mph SE5.6 kmh SE 4.6 mph7.4 kmh 29.95 in1014.2 mb - 0.00 in0.0 mm 0.00 in0.0 mm
08:20 AM 49.5°F9.7°C 41.9°F5.5°C 75% Calm Calm 4.6 mph7.4 kmh 29.95 in1014.2 mb - 0.00 in0.0 mm 0.00 in0.0 mm
08:30 AM 49.5°F9.7°C 42.2°F5.7°C 76% 2.3 mph SE3.7 kmh SE 4.6 mph7.4 kmh 29.95 in1014.2 mb - 0.00 in0.0 mm 0.00 in0.0 mm
08:40 AM 49.5°F9.7°C 41.9°F5.5°C 75% 4.6 mph SSE7.4 kmh SSE 10.4 mph16.7 kmh 29.95 in1014.2 mb - 0.00 in0.0 mm 0.00 in0.0 mm
08:50 AM 49.6°F9.8°C 41.7°F5.4°C 74% 3.5 mph SSE5.6 kmh SSE 4.6 mph7.4 kmh 29.96 in1014.6 mb - 0.00 in0.0 mm 0.00 in0.0 mm
09:00 AM 50.3°F10.2°C 41.6°F5.3°C 72% 3.5 mph S5.6 kmh S 4.6 mph7.4 kmh 29.95 in1014.2 mb - 0.00 in0.0 mm 0.00 in0.0 mm
09:10 AM 51.3°F10.7°C 42.2°F5.7°C 71% 3.5 mph S5.6 kmh S 4.6 mph7.4 kmh 29.95 in1014.2 mb - 0.00 in0.0 mm 0.00 in0.0 mm
09:20 AM 52.3°F11.3°C 43.5°F6.4°C 72% 5.8 mph SSE9.3 kmh SSE 10.4 mph16.7 kmh 29.96 in1014.6 mb - 0.00 in0.0 mm 0.00 in0.0 mm
09:30 AM 53.1°F11.7°C 44.0°F6.7°C 71% 4.6 mph S7.4 kmh S 8.1 mph13.0 kmh 29.95 in1014.2 mb - 0.00 in0.0 mm 0.00 in0.0 mm
09:40 AM 53.8°F12.1°C 44.6°F7.0°C 71% 6.9 mph S11.1 kmh S 10.4 mph16.7 kmh 29.96 in1014.6 mb - 0.00 in0.0 mm 0.00 in0.0 mm
09:50 AM 54.5°F12.5°C 45.3°F7.4°C 71% 5.8 mph S9.3 kmh S 8.1 mph13.0 kmh 29.95 in1014.2 mb - 0.00 in0.0 mm 0.00 in0.0 mm
10:00 AM 55.4°F13.0°C 45.7°F7.6°C 70% 4.6 mph SSE7.4 kmh SSE 8.1 mph13.0 kmh 29.95 in1014.2 mb - 0.00 in0.0 mm 0.00 in0.0 mm
10:10 AM 56.1°F13.4°C 46.4°F8.0°C 70% 4.6 mph S7.4 kmh S 8.1 mph13.0 kmh 29.95 in1014.2 mb - 0.00 in0.0 mm 0.00 in0.0 mm
10:20 AM 56.5°F13.6°C 47.2°F8.4°C 71% 6.9 mph SSE11.1 kmh SSE 10.4 mph16.7 kmh 29.96 in1014.6 mb - 0.00 in0.0 mm 0.00 in0.0 mm
10:30 AM 56.8°F13.8°C 46.7°F8.2°C 69% 4.6 mph S7.4 kmh S 8.1 mph13.0 kmh 29.96 in1014.6 mb - 0.00 in0.0 mm 0.00 in0.0 mm
10:40 AM 57.4°F14.1°C 46.5°F8.1°C 67% 2.3 mph S3.7 kmh S 4.6 mph7.4 kmh 29.95 in1014.2 mb - 0.00 in0.0 mm 0.00 in0.0 mm
10:50 AM 58.0°F14.4°C 47.5°F8.6°C 68% 3.5 mph SE5.6 kmh SE 4.6 mph7.4 kmh 29.94 in1013.9 mb - 0.00 in0.0 mm 0.00 in0.0 mm
11:00 AM 58.5°F14.7°C 47.6°F8.7°C 67% 2.3 mph SE3.7 kmh SE 4.6 mph7.4 kmh 29.94 in1013.9 mb - 0.00 in0.0 mm 0.00 in0.0 mm
11:10 AM 58.6°F14.8°C 47.3°F8.5°C 66% 1.2 mph SE1.9 kmh SE 2.3 mph3.7 kmh 29.93 in1013.5 mb - 0.00 in0.0 mm 0.00 in0.0 mm
11:20 AM 58.8°F14.9°C 47.5°F8.6°C 66% 6.9 mph SE11.1 kmh SE 10.4 mph16.7 kmh 29.93 in1013.5 mb - 0.00 in0.0 mm 0.00 in0.0 mm
11:30 AM 59.0°F15.0°C 47.2°F8.4°C 65% 5.8 mph SE9.3 kmh SE 8.1 mph13.0 kmh 29.92 in1013.2 mb - 0.00 in0.0 mm 0.00 in0.0 mm
11:40 AM 59.2°F15.1°C 47.4°F8.6°C 65% 4.6 mph SSE7.4 kmh SSE 8.1 mph13.0 kmh 29.90 in1012.5 mb - 0.00 in0.0 mm 0.00 in0.0 mm
11:50 AM 59.6°F15.3°C 47.4°F8.6°C 64% 1.2 mph SW1.9 kmh SW 2.3 mph3.7 kmh 29.92 in1013.2 mb - 0.00 in0.0 mm 0.00 in0.0 mm
12:00 PM 60.4°F15.8°C 47.3°F8.5°C 62% Calm Calm 2.3 mph3.7 kmh 29.91 in1012.9 mb - 0.00 in0.0 mm 0.00 in0.0 mm
12:10 PM 61.0°F16.1°C 45.2°F7.3°C 56% 3.5 mph SW5.6 kmh SW 4.6 mph7.4 kmh 29.91 in1012.9 mb - 0.00 in0.0 mm 0.00 in0.0 mm
12:20 PM 61.5°F16.4°C 46.1°F7.8°C 57% 2.3 mph SW3.7 kmh SW 4.6 mph7.4 kmh 29.90 in1012.5 mb - 0.00 in0.0 mm 0.00 in0.0 mm
12:30 PM 61.7°F16.5°C 46.3°F7.9°C 57% 2.3 mph SSW3.7 kmh SSW 8.1 mph13.0 kmh 29.90 in1012.5 mb - 0.00 in0.0 mm 0.00 in0.0 mm
12:40 PM 61.5°F16.4°C 46.1°F7.8°C 57% 2.3 mph SW3.7 kmh SW 4.6 mph7.4 kmh 29.90 in1012.5 mb - 0.00 in0.0 mm 0.00 in0.0 mm
12:50 PM 61.5°F16.4°C 45.2°F7.3°C 55% 8.1 mph SSW13.0 kmh SSW 12.7 mph20.4 kmh 29.89 in1012.2 mb - 0.00 in0.0 mm 0.00 in0.0 mm
01:00 PM 61.9°F16.6°C 44.6°F7.0°C 53% 4.6 mph WSW7.4 kmh WSW 8.1 mph13.0 kmh 29.89 in1012.2 mb - 0.00 in0.0 mm 0.00 in0.0 mm
01:10 PM 62.2°F16.8°C 44.9°F7.2°C 53% 2.3 mph SE3.7 kmh SE 4.6 mph7.4 kmh 29.88 in1011.9 mb - 0.00 in0.0 mm 0.00 in0.0 mm
01:20 PM 62.8°F17.1°C 45.9°F7.7°C 54% 1.2 mph N1.9 kmh N 2.3 mph3.7 kmh 29.88 in1011.9 mb - 0.00 in0.0 mm 0.00 in0.0 mm
01:30 PM 63.1°F17.3°C 45.2°F7.3°C 52% 3.5 mph SW5.6 kmh SW 8.1 mph13.0 kmh 29.87 in1011.5 mb - 0.00 in0.0 mm 0.00 in0.0 mm
01:40 PM 63.3°F17.4°C 44.9°F7.2°C 51% 2.3 mph SW3.7 kmh SW 2.3 mph3.7 kmh 29.87 in1011.5 mb - 0.00 in0.0 mm 0.00 in0.0 mm
01:50 PM 63.5°F17.5°C 42.9°F6.1°C 47% 4.6 mph WSW7.4 kmh WSW 8.1 mph13.0 kmh 29.86 in1011.2 mb - 0.00 in0.0 mm 0.00 in0.0 mm
02:00 PM 64.0°F17.8°C 43.9°F6.6°C 48% 5.8 mph SW9.3 kmh SW 10.4 mph16.7 kmh 29.86 in1011.2 mb - 0.00 in0.0 mm 0.00 in0.0 mm
02:10 PM 64.2°F17.9°C 45.7°F7.6°C 51% 3.5 mph SW5.6 kmh SW 4.6 mph7.4 kmh 29.86 in1011.2 mb - 0.00 in0.0 mm 0.00 in0.0 mm
02:20 PM 63.9°F17.7°C 44.9°F7.2°C 50% 3.5 mph SW5.6 kmh SW 4.6 mph7.4 kmh 29.85 in1010.8 mb - 0.00 in0.0 mm 0.00 in0.0 mm
02:30 PM 63.5°F17.5°C 44.5°F6.9°C 50% 3.5 mph WSW5.6 kmh WSW 4.6 mph7.4 kmh 29.85 in1010.8 mb - 0.00 in0.0 mm 0.00 in0.0 mm
02:40 PM 63.3°F17.4°C 44.3°F6.8°C 50% 4.6 mph W7.4 kmh W 8.1 mph13.0 kmh 29.85 in1010.8 mb - 0.00 in0.0 mm 0.00 in0.0 mm
02:50 PM 63.5°F17.5°C 45.6°F7.6°C 52% 1.2 mph W1.9 kmh W 4.6 mph7.4 kmh 29.85 in1010.8 mb - 0.00 in0.0 mm 0.00 in0.0 mm
03:00 PM 64.0°F17.8°C 44.4°F6.9°C 49% 4.6 mph WNW7.4 kmh WNW 4.6 mph7.4 kmh 29.85 in1010.8 mb - 0.00 in0.0 mm 0.00 in0.0 mm
03:10 PM 64.6°F18.1°C 46.6°F8.1°C 52% 3.5 mph SW5.6 kmh SW 4.6 mph7.4 kmh 29.85 in1010.8 mb - 0.00 in0.0 mm 0.00 in0.0 mm
03:20 PM 64.8°F18.2°C 46.8°F8.2°C 52% 3.5 mph S5.6 kmh S 4.6 mph7.4 kmh 29.84 in1010.5 mb - 0.00 in0.0 mm 0.00 in0.0 mm
03:30 PM 64.8°F18.2°C 46.2°F7.9°C 51% 1.2 mph WSW1.9 kmh WSW 4.6 mph7.4 kmh 29.85 in1010.8 mb - 0.00 in0.0 mm 0.00 in0.0 mm
03:40 PM 64.6°F18.1°C 46.6°F8.1°C 52% 2.3 mph SE3.7 kmh SE 4.6 mph7.4 kmh 29.85 in1010.8 mb - 0.00 in0.0 mm 0.00 in0.0 mm
03:50 PM 64.8°F18.2°C 47.8°F8.8°C 54% 2.3 mph S3.7 kmh S 8.1 mph13.0 kmh 29.85 in1010.8 mb - 0.00 in0.0 mm 0.00 in0.0 mm
04:00 PM 64.2°F17.9°C 47.2°F8.4°C 54% Calm Calm 2.3 mph3.7 kmh 29.85 in1010.8 mb - 0.00 in0.0 mm 0.00 in0.0 mm
04:10 PM 64.0°F17.8°C 47.5°F8.6°C 55% 2.3 mph S3.7 kmh S 8.1 mph13.0 kmh 29.85 in1010.8 mb - 0.00 in0.0 mm 0.00 in0.0 mm
04:20 PM 64.0°F17.8°C 47.0°F8.3°C 54% 1.2 mph S1.9 kmh S 4.6 mph7.4 kmh 29.85 in1010.8 mb - 0.00 in0.0 mm 0.00 in0.0 mm
04:30 PM 64.2°F17.9°C 48.2°F9.0°C 56% 3.5 mph SW5.6 kmh SW 8.1 mph13.0 kmh 29.85 in1010.8 mb - 0.00 in0.0 mm 0.00 in0.0 mm
04:40 PM 63.6°F17.6°C 48.1°F8.9°C 57% 5.8 mph SSE9.3 kmh SSE 12.7 mph20.4 kmh 29.84 in1010.5 mb - 0.00 in0.0 mm 0.00 in0.0 mm
04:50 PM 62.7°F17.1°C 47.7°F8.7°C 58% 6.9 mph SSE11.1 kmh SSE 10.4 mph16.7 kmh 29.85 in1010.8 mb - 0.00 in0.0 mm 0.00 in0.0 mm
05:00 PM 61.8°F16.6°C 47.7°F8.7°C 60% 9.2 mph S14.8 kmh S 15.0 mph24.1 kmh 29.85 in1010.8 mb - 0.00 in0.0 mm 0.00 in0.0 mm
05:10 PM 61.2°F16.2°C 47.6°F8.7°C 61% 4.6 mph S7.4 kmh S 8.1 mph13.0 kmh 29.85 in1010.8 mb - 0.00 in0.0 mm 0.00 in0.0 mm
05:20 PM 60.8°F16.0°C 48.1°F8.9°C 63% 2.3 mph SW3.7 kmh SW 4.6 mph7.4 kmh 29.85 in1010.8 mb - 0.00 in0.0 mm 0.00 in0.0 mm
05:30 PM 60.4°F15.8°C 48.6°F9.2°C 65% 2.3 mph SSW3.7 kmh SSW 4.6 mph7.4 kmh 29.85 in1010.8 mb - 0.00 in0.0 mm 0.00 in0.0 mm
05:40 PM 59.9°F15.5°C 48.5°F9.2°C 66% 2.3 mph SE3.7 kmh SE 4.6 mph7.4 kmh 29.85 in1010.8 mb - 0.00 in0.0 mm 0.00 in0.0 mm
05:50 PM 59.5°F15.3°C 48.5°F9.2°C 67% 1.2 mph SE1.9 kmh SE 8.1 mph13.0 kmh 29.85 in1010.8 mb - 0.00 in0.0 mm 0.00 in0.0 mm
06:00 PM 59.2°F15.1°C 47.0°F8.3°C 64% 4.6 mph S7.4 kmh S 8.1 mph13.0 kmh 29.85 in1010.8 mb - 0.00 in0.0 mm 0.00 in0.0 mm
06:10 PM 59.2°F15.1°C 47.0°F8.3°C 64% 3.5 mph S5.6 kmh S 4.6 mph7.4 kmh 29.86 in1011.2 mb - 0.00 in0.0 mm 0.00 in0.0 mm
06:20 PM 59.2°F15.1°C 47.4°F8.6°C 65% 5.8 mph SW9.3 kmh SW 8.1 mph13.0 kmh 29.86 in1011.2 mb - 0.00 in0.0 mm 0.00 in0.0 mm
06:30 PM 59.2°F15.1°C 47.4°F8.6°C 65% 3.5 mph SE5.6 kmh SE 4.6 mph7.4 kmh 29.86 in1011.2 mb - 0.00 in0.0 mm 0.00 in0.0 mm
06:40 PM 59.2°F15.1°C 47.4°F8.6°C 65% 4.6 mph SSW7.4 kmh SSW 10.4 mph16.7 kmh 29.86 in1011.2 mb - 0.00 in0.0 mm 0.00 in0.0 mm
06:50 PM 59.0°F15.0°C 47.7°F8.7°C 66% 6.9 mph S11.1 kmh S 10.4 mph16.7 kmh 29.85 in1010.8 mb - 0.00 in0.0 mm 0.00 in0.0 mm
07:00 PM 58.8°F14.9°C 47.5°F8.6°C 66% 3.5 mph SSW5.6 kmh SSW 4.6 mph7.4 kmh 29.86 in1011.2 mb - 0.00 in0.0 mm 0.00 in0.0 mm
07:10 PM 58.8°F14.9°C 47.9°F8.8°C 67% 6.9 mph S11.1 kmh S 10.4 mph16.7 kmh 29.85 in1010.8 mb - 0.00 in0.0 mm 0.00 in0.0 mm
07:20 PM 58.8°F14.9°C 47.1°F8.4°C 65% 8.1 mph S13.0 kmh S 12.7 mph20.4 kmh 29.86 in1011.2 mb - 0.00 in0.0 mm 0.00 in0.0 mm
07:30 PM 58.8°F14.9°C 47.5°F8.6°C 66% 8.1 mph SSE13.0 kmh SSE 10.4 mph16.7 kmh 29.85 in1010.8 mb - 0.00 in0.0 mm 0.00 in0.0 mm
07:40 PM 58.8°F14.9°C 47.5°F8.6°C 66% 5.8 mph S9.3 kmh S 10.4 mph16.7 kmh 29.86 in1011.2 mb - 0.00 in0.0 mm 0.00 in0.0 mm
07:50 PM 58.8°F14.9°C 47.9°F8.8°C 67% 6.9 mph SSE11.1 kmh SSE 10.4 mph16.7 kmh 29.87 in1011.5 mb - 0.00 in0.0 mm 0.00 in0.0 mm
08:00 PM 58.6°F14.8°C 47.7°F8.7°C 67% 5.8 mph SSE9.3 kmh SSE 10.4 mph16.7 kmh 29.87 in1011.5 mb - 0.00 in0.0 mm 0.00 in0.0 mm
08:10 PM 58.8°F14.9°C 47.5°F8.6°C 66% 5.8 mph S9.3 kmh S 10.4 mph16.7 kmh 29.87 in1011.5 mb - 0.00 in0.0 mm 0.00 in0.0 mm
08:20 PM 58.8°F14.9°C 47.9°F8.8°C 67% 4.6 mph SSW7.4 kmh SSW 10.4 mph16.7 kmh 29.87 in1011.5 mb - 0.00 in0.0 mm 0.00 in0.0 mm
08:30 PM 58.8°F14.9°C 47.9°F8.8°C 67% 6.9 mph SSE11.1 kmh SSE 8.1 mph13.0 kmh 29.87 in1011.5 mb - 0.00 in0.0 mm 0.00 in0.0 mm
08:40 PM 58.8°F14.9°C 48.3°F9.1°C 68% 5.8 mph SSE9.3 kmh SSE 10.4 mph16.7 kmh 29.86 in1011.2 mb - 0.00 in0.0 mm 0.00 in0.0 mm
08:50 PM 58.6°F14.8°C 47.7°F8.7°C 67% 9.2 mph SSE14.8 kmh SSE 12.7 mph20.4 kmh 29.86 in1011.2 mb - 0.00 in0.0 mm 0.00 in0.0 mm
09:00 PM 58.6°F14.8°C 47.3°F8.5°C 66% 5.8 mph SSE9.3 kmh SSE 8.1 mph13.0 kmh 29.86 in1011.2 mb - 0.00 in0.0 mm 0.00 in0.0 mm
09:10 PM 58.6°F14.8°C 47.3°F8.5°C 66% 6.9 mph S11.1 kmh S 12.7 mph20.4 kmh 29.86 in1011.2 mb - 0.00 in0.0 mm 0.00 in0.0 mm
09:20 PM 58.8°F14.9°C 47.5°F8.6°C 66% 3.5 mph SE5.6 kmh SE 4.6 mph7.4 kmh 29.87 in1011.5 mb - 0.00 in0.0 mm 0.00 in0.0 mm
09:30 PM 59.0°F15.0°C 47.2°F8.4°C 65% 6.9 mph SSE11.1 kmh SSE 10.4 mph16.7 kmh 29.87 in1011.5 mb - 0.00 in0.0 mm 0.00 in0.0 mm
09:40 PM 59.0°F15.0°C 47.2°F8.4°C 65% 6.9 mph SSW11.1 kmh SSW 12.7 mph20.4 kmh 29.86 in1011.2 mb - 0.00 in0.0 mm 0.00 in0.0 mm
09:50 PM 59.0°F15.0°C 47.2°F8.4°C 65% 4.6 mph SE7.4 kmh SE 10.4 mph16.7 kmh 29.86 in1011.2 mb - 0.00 in0.0 mm 0.00 in0.0 mm
10:00 PM 58.8°F14.9°C 47.9°F8.8°C 67% 4.6 mph S7.4 kmh S 10.4 mph16.7 kmh 29.87 in1011.5 mb - 0.00 in0.0 mm 0.00 in0.0 mm
10:10 PM 58.5°F14.7°C 47.6°F8.7°C 67% 6.9 mph SSE11.1 kmh SSE 10.4 mph16.7 kmh 29.86 in1011.2 mb - 0.00 in0.0 mm 0.00 in0.0 mm
10:20 PM 58.1°F14.5°C 48.0°F8.9°C 69% 3.5 mph S5.6 kmh S 8.1 mph13.0 kmh 29.86 in1011.2 mb - 0.00 in0.0 mm 0.00 in0.0 mm
10:30 PM 57.9°F14.4°C 47.8°F8.8°C 69% 6.9 mph SE11.1 kmh SE 8.1 mph13.0 kmh 29.87 in1011.5 mb - 0.00 in0.0 mm 0.00 in0.0 mm
10:40 PM 57.9°F14.4°C 46.6°F8.1°C 66% 6.9 mph SSE11.1 kmh SSE 8.1 mph13.0 kmh 29.86 in1011.2 mb - 0.00 in0.0 mm 0.00 in0.0 mm
10:50 PM 58.1°F14.5°C 46.0°F7.8°C 64% 3.5 mph SE5.6 kmh SE 4.6 mph7.4 kmh 29.86 in1011.2 mb - 0.00 in0.0 mm 0.00 in0.0 mm
11:00 PM 58.5°F14.7°C 45.9°F7.7°C 63% 6.9 mph SE11.1 kmh SE 10.4 mph16.7 kmh 29.87 in1011.5 mb - 0.00 in0.0 mm 0.00 in0.0 mm
11:10 PM 58.8°F14.9°C 46.2°F7.9°C 63% 3.5 mph SE5.6 kmh SE 10.4 mph16.7 kmh 29.87 in1011.5 mb - 0.00 in0.0 mm 0.00 in0.0 mm
11:20 PM 58.8°F14.9°C 46.6°F8.1°C 64% 5.8 mph SE9.3 kmh SE 10.4 mph16.7 kmh 29.87 in1011.5 mb - 0.00 in0.0 mm 0.00 in0.0 mm
11:30 PM 58.8°F14.9°C 47.1°F8.4°C 65% 5.8 mph SE9.3 kmh SE 8.1 mph13.0 kmh 29.87 in1011.5 mb - 0.00 in0.0 mm 0.00 in0.0 mm
11:40 PM 58.6°F14.8°C 46.9°F8.3°C 65% 5.8 mph SE9.3 kmh SE 10.4 mph16.7 kmh 29.87 in1011.5 mb - 0.00 in0.0 mm 0.00 in0.0 mm
11:50 PM 58.5°F14.7°C 46.4°F8.0°C 64% 4.6 mph ESE7.4 kmh ESE 10.4 mph16.7 kmh 29.87 in1011.5 mb - 0.00 in0.0 mm 0.00 in0.0 mm